createdAt,value
2023-11-07T04:01:22.689Z,2.90
2023-11-07T04:03:51.225Z,2.70
2023-11-07T04:06:19.073Z,3.20
2023-11-07T04:08:46.390Z,2.90
2023-11-07T04:11:14.750Z,2.90
2023-11-07T04:13:42.737Z,8.13
2023-11-07T04:16:10.068Z,3.63
2023-11-07T04:18:37.404Z,3.23
2023-11-07T04:21:05.359Z,2.70
2023-11-07T04:23:32.613Z,2.90
2023-11-07T04:25:59.767Z,2.87
2023-11-07T04:28:28.196Z,2.70
2023-11-07T04:30:55.676Z,2.90
2023-11-07T04:33:23.016Z,3.00
2023-11-07T04:35:50.407Z,2.67
2023-11-07T04:38:17.782Z,2.70
2023-11-07T04:40:45.028Z,3.20
2023-11-07T04:43:12.253Z,2.97
2023-11-07T04:45:39.696Z,3.10
2023-11-07T04:48:07.396Z,3.07
2023-11-07T04:50:37.493Z,3.10
2023-11-07T04:53:05.813Z,3.50
2023-11-07T04:55:33.068Z,3.20
2023-11-07T04:58:00.362Z,3.20
2023-11-07T05:00:27.629Z,3.17
2023-11-07T05:02:55.440Z,3.40
2023-11-07T05:05:22.772Z,3.00
2023-11-07T05:07:50.158Z,3.40
2023-11-07T05:10:17.386Z,3.30
2023-11-07T05:12:44.716Z,2.90
2023-11-07T05:15:12.084Z,3.57
2023-11-07T05:17:39.627Z,3.80
2023-11-07T05:20:09.412Z,3.93
2023-11-07T05:22:38.029Z,4.30
2023-11-07T05:25:08.788Z,4.07
2023-11-07T05:27:36.394Z,4.30
2023-11-07T05:30:04.228Z,4.03
2023-11-07T05:32:31.491Z,3.50
2023-11-07T05:34:58.712Z,3.30
2023-11-07T05:37:25.913Z,3.37
2023-11-07T05:39:53.101Z,3.50
2023-11-07T05:42:20.634Z,3.27
2023-11-07T05:44:47.922Z,3.40
2023-11-07T05:47:15.130Z,3.30
2023-11-07T05:49:42.366Z,3.33
2023-11-07T05:52:10.667Z,3.80
2023-11-07T05:54:37.898Z,5.10
2023-11-07T05:57:05.410Z,5.43
2023-11-07T05:59:32.612Z,3.90
2023-11-07T06:01:59.770Z,3.80
2023-11-07T06:04:35.597Z,3.30
2023-11-07T06:07:03.489Z,3.20
2023-11-07T06:09:31.240Z,3.30
2023-11-07T06:11:58.726Z,3.40
2023-11-07T06:14:26.019Z,3.03
2023-11-07T06:16:56.201Z,2.90
2023-11-07T06:19:23.657Z,2.67
2023-11-07T06:21:51.156Z,3.13
2023-11-07T06:24:19.888Z,3.40
2023-11-07T06:26:47.674Z,3.50
2023-11-07T06:29:16.132Z,3.27
2023-11-07T06:31:46.847Z,3.03
2023-11-07T06:34:17.376Z,4.37
2023-11-07T06:36:47.339Z,2.93
2023-11-07T06:39:16.703Z,3.10
2023-11-07T06:41:44.137Z,3.10
2023-11-07T06:44:12.675Z,3.20
2023-11-07T06:46:43.218Z,3.53
2023-11-07T06:49:10.835Z,3.30
2023-11-07T06:51:38.136Z,3.20
2023-11-07T06:54:05.829Z,3.30
2023-11-07T06:56:33.450Z,3.10
2023-11-07T06:59:00.638Z,3.10
2023-11-07T07:01:29.243Z,3.47
2023-11-07T07:03:56.710Z,3.37
2023-11-07T07:06:25.079Z,2.80
2023-11-07T07:08:52.964Z,2.90
2023-11-07T07:11:21.225Z,2.80
2023-11-07T07:13:49.025Z,3.00
2023-11-07T07:16:17.956Z,3.20
2023-11-07T07:18:46.384Z,2.90
2023-11-07T07:21:14.280Z,3.27
2023-11-07T07:23:47.964Z,3.00
2023-11-07T07:26:17.624Z,2.90
2023-11-07T07:28:44.913Z,3.20
2023-11-07T07:31:17.920Z,3.60
2023-11-07T07:33:45.232Z,3.70
2023-11-07T07:36:16.402Z,3.10
2023-11-07T07:38:43.764Z,3.27
2023-11-07T07:41:11.888Z,2.80
2023-11-07T07:43:39.909Z,2.80
2023-11-07T07:46:08.388Z,2.90
2023-11-07T07:48:35.926Z,2.40
2023-11-07T07:51:07.762Z,2.70
2023-11-07T07:53:38.163Z,2.50
2023-11-07T07:56:13.655Z,2.60
2023-11-07T07:58:42.543Z,3.40
2023-11-07T08:01:11.118Z,3.23
2023-11-07T08:03:39.568Z,3.00
2023-11-07T08:06:07.473Z,3.00
2023-11-07T08:08:34.956Z,2.90
2023-11-07T08:11:02.347Z,2.65
2023-11-07T08:13:30.231Z,3.00
2023-11-07T08:15:57.556Z,2.90
2023-11-07T08:18:25.063Z,3.30
2023-11-07T08:20:52.432Z,3.70
2023-11-07T08:23:19.725Z,3.27
2023-11-07T08:25:46.910Z,3.70
2023-11-07T08:28:14.236Z,3.37
2023-11-07T08:30:45.329Z,3.60
2023-11-07T08:33:14.091Z,2.70
2023-11-07T08:35:41.697Z,2.90
2023-11-07T08:38:08.971Z,2.90
2023-11-07T08:40:36.784Z,3.20
2023-11-07T08:43:04.657Z,2.77
2023-11-07T08:45:34.072Z,2.90
2023-11-07T08:48:01.941Z,2.50
2023-11-07T08:50:29.597Z,2.97
2023-11-07T08:52:58.366Z,2.60
2023-11-07T08:55:27.094Z,3.53
2023-11-07T08:57:54.804Z,2.45
2023-11-07T09:00:28.236Z,3.30
2023-11-07T09:02:55.751Z,2.95
2023-11-07T09:05:23.729Z,2.50
2023-11-07T09:07:51.760Z,2.63
2023-11-07T09:10:21.299Z,2.67
2023-11-07T09:12:48.626Z,3.07
2023-11-07T09:15:16.052Z,2.88
2023-11-07T09:17:44.216Z,2.63
2023-11-07T09:20:16.116Z,2.80
2023-11-07T09:22:44.508Z,3.67
2023-11-07T09:25:15.394Z,2.92
2023-11-07T09:27:42.645Z,2.60
2023-11-07T09:30:11.601Z,2.90
2023-11-07T09:32:41.197Z,2.60
2023-11-07T09:35:09.098Z,2.33
2023-11-07T09:37:40.830Z,2.70
2023-11-07T09:40:14.496Z,3.60
2023-11-07T09:42:42.648Z,3.35
2023-11-07T09:45:15.921Z,2.38
2023-11-07T09:47:50.016Z,2.70
2023-11-07T09:50:22.472Z,2.65
2023-11-07T09:52:52.292Z,2.83
2023-11-07T09:55:19.572Z,2.40
2023-11-07T09:57:46.696Z,2.40
2023-11-07T10:00:21.123Z,2.35
2023-11-07T10:02:50.459Z,2.28
2023-11-07T10:05:22.590Z,2.65
2023-11-07T10:07:52.930Z,2.60
2023-11-07T10:10:20.290Z,4.18
2023-11-07T10:12:50.569Z,7.80
2023-11-07T10:15:26.128Z,3.35
2023-11-07T10:18:10.159Z,2.63
2023-11-07T10:20:51.863Z,2.50
2023-11-07T10:23:19.812Z,2.70
2023-11-07T10:25:53.062Z,2.47
2023-11-07T10:28:23.908Z,2.20
2023-11-07T10:30:51.923Z,2.35
2023-11-07T10:33:26.684Z,2.13
2023-11-07T10:36:00.502Z,2.53
2023-11-07T10:38:30.025Z,2.63
2023-11-07T10:40:57.604Z,1.90
2023-11-07T10:43:39.050Z,2.25
2023-11-07T10:46:11.214Z,2.40
2023-11-07T10:48:42.711Z,2.30
2023-11-07T10:51:12.452Z,2.70
2023-11-07T10:53:44.809Z,2.78
2023-11-07T10:56:20.215Z,2.40
2023-11-07T10:59:02.551Z,2.60
2023-11-07T11:01:34.741Z,2.40
2023-11-07T11:04:04.051Z,2.55
2023-11-07T11:06:33.777Z,2.45
2023-11-07T11:09:07.520Z,3.20
2023-11-07T11:11:35.515Z,2.60
2023-11-07T11:14:05.345Z,3.33
2023-11-07T11:16:33.383Z,3.00
2023-11-07T11:19:10.578Z,2.87
2023-11-07T11:21:47.472Z,2.92
2023-11-07T11:24:25.859Z,2.83
2023-11-07T11:27:04.370Z,3.10
2023-11-07T11:29:31.578Z,3.47
2023-11-07T11:32:18.726Z,2.90
2023-11-07T11:34:45.911Z,2.70
2023-11-07T11:37:13.204Z,2.20
2023-11-07T11:39:43.662Z,2.25
2023-11-07T11:42:12.754Z,2.30
2023-11-07T11:44:40.463Z,2.10
2023-11-07T11:47:10.445Z,2.10
2023-11-07T11:49:43.183Z,2.28
2023-11-07T11:52:31.713Z,2.50
2023-11-07T11:55:05.401Z,2.33
2023-11-07T11:57:32.652Z,2.53
2023-11-07T12:00:00.671Z,2.45
2023-11-07T12:02:37.723Z,2.40
2023-11-07T12:05:19.092Z,2.42
2023-11-07T12:07:47.570Z,2.67
2023-11-07T12:10:15.729Z,2.33
2023-11-07T12:12:42.988Z,2.42
2023-11-07T12:15:13.724Z,2.80
2023-11-07T12:17:44.997Z,2.72
2023-11-07T12:20:18.304Z,2.40
2023-11-07T12:22:49.475Z,2.45
2023-11-07T12:25:21.316Z,2.20
2023-11-07T12:27:57.921Z,2.25
2023-11-07T12:30:25.492Z,2.20
2023-11-07T12:33:04.100Z,2.22
2023-11-07T12:35:31.710Z,2.33
2023-11-07T12:38:02.263Z,2.22
2023-11-07T12:40:29.636Z,2.60
2023-11-07T12:42:57.905Z,2.67
2023-11-07T12:45:32.636Z,2.60
2023-11-07T12:48:01.845Z,2.92
2023-11-07T12:50:32.569Z,2.40
2023-11-07T12:53:06.540Z,2.20
2023-11-07T12:55:38.352Z,3.70
2023-11-07T12:58:06.870Z,2.20
2023-11-07T13:01:00.038Z,2.10
2023-11-07T13:03:32.821Z,2.40
2023-11-07T13:06:06.066Z,2.17
2023-11-07T13:08:45.441Z,2.50
2023-11-07T13:11:20.415Z,2.40
2023-11-07T13:13:50.476Z,2.35
2023-11-07T13:16:19.094Z,2.20
2023-11-07T13:18:48.642Z,2.83
2023-11-07T13:21:18.065Z,2.30
2023-11-07T13:23:45.722Z,2.22
2023-11-07T13:26:13.238Z,2.58
2023-11-07T13:28:42.365Z,2.30
2023-11-07T13:31:11.793Z,2.13
2023-11-07T13:33:39.305Z,2.38
2023-11-07T13:36:06.879Z,2.15
2023-11-07T13:38:34.222Z,2.42
2023-11-07T13:41:02.479Z,2.10
2023-11-07T13:43:30.407Z,2.10
2023-11-07T13:45:58.431Z,1.90
2023-11-07T13:48:26.087Z,2.58
2023-11-07T13:50:53.565Z,2.17
2023-11-07T13:53:20.800Z,2.58
2023-11-07T13:55:48.151Z,2.50
2023-11-07T13:58:15.561Z,2.47
2023-11-07T14:00:42.847Z,2.50
2023-11-07T14:03:10.235Z,2.30
2023-11-07T14:05:37.674Z,2.10
2023-11-07T14:08:06.019Z,2.40
2023-11-07T14:10:33.398Z,2.10
2023-11-07T14:13:01.409Z,2.20
2023-11-07T14:15:36.059Z,2.50
2023-11-07T14:18:15.848Z,2.53
2023-11-07T14:20:54.449Z,2.60
2023-11-07T14:23:21.771Z,2.72
2023-11-07T14:25:49.061Z,2.40
2023-11-07T14:28:16.446Z,2.35
2023-11-07T14:30:47.150Z,2.50
2023-11-07T14:33:17.749Z,2.42
2023-11-07T14:35:47.081Z,2.70
2023-11-07T14:38:15.401Z,2.28
2023-11-07T14:40:42.663Z,2.70
2023-11-07T14:43:16.136Z,2.70
2023-11-07T14:45:45.665Z,2.70
2023-11-07T14:48:15.118Z,2.67
2023-11-07T14:50:43.258Z,2.72
2023-11-07T14:53:11.620Z,2.90
2023-11-07T14:55:39.614Z,2.88
2023-11-07T14:58:07.771Z,2.83
2023-11-07T15:00:41.506Z,3.00
2023-11-07T15:03:11.458Z,3.05
2023-11-07T15:05:42.679Z,3.13
2023-11-07T15:08:10.674Z,3.50
2023-11-07T15:10:38.359Z,3.65
2023-11-07T15:13:07.403Z,3.10
2023-11-07T15:15:35.570Z,3.40
2023-11-07T15:18:04.990Z,3.85
2023-11-07T15:20:32.903Z,3.50
2023-11-07T15:23:04.035Z,3.75
2023-11-07T15:25:34.286Z,3.50
2023-11-07T15:28:02.243Z,3.70
2023-11-07T15:30:30.053Z,4.10
2023-11-07T15:32:58.570Z,3.70
2023-11-07T15:35:28.902Z,3.17
2023-11-07T15:37:56.727Z,3.10
2023-11-07T15:40:24.248Z,3.00
2023-11-07T15:42:51.532Z,3.42
2023-11-07T15:45:19.746Z,4.00
2023-11-07T15:47:48.414Z,3.10
2023-11-07T15:50:17.526Z,3.42
2023-11-07T15:53:00.132Z,3.13
2023-11-07T15:55:36.270Z,3.30
2023-11-07T15:58:06.432Z,3.10
2023-11-07T16:00:35.275Z,3.53
2023-11-07T16:03:04.179Z,3.20
2023-11-07T16:05:34.339Z,3.90
2023-11-07T16:08:01.982Z,3.42
2023-11-07T16:10:30.677Z,3.77
2023-11-07T16:13:00.480Z,4.05
2023-11-07T16:15:27.803Z,5.73
2023-11-07T16:17:55.143Z,7.80
2023-11-07T16:20:23.849Z,12.65
2023-11-07T16:22:51.108Z,14.83
2023-11-07T16:25:18.387Z,7.13
2023-11-07T16:27:45.945Z,5.13
2023-11-07T16:30:16.220Z,4.60
2023-11-07T16:32:43.600Z,4.30
2023-11-07T16:35:11.774Z,4.20
2023-11-07T16:37:39.797Z,4.37
2023-11-07T16:40:11.710Z,4.63
2023-11-07T16:42:39.773Z,5.00
2023-11-07T16:45:07.702Z,4.53
2023-11-07T16:47:35.090Z,5.20
2023-11-07T16:50:02.796Z,4.40
2023-11-07T16:52:30.354Z,4.17
2023-11-07T16:54:58.108Z,4.13
2023-11-07T16:57:25.454Z,4.60
2023-11-07T16:59:53.096Z,4.67
2023-11-07T17:02:20.657Z,5.60
2023-11-07T17:04:48.454Z,7.90
2023-11-07T17:07:16.044Z,5.63
2023-11-07T17:09:43.399Z,4.50
2023-11-07T17:12:10.663Z,3.70
2023-11-07T17:14:38.645Z,3.30
2023-11-07T17:17:06.644Z,3.63
2023-11-07T17:19:34.082Z,3.10
2023-11-07T17:22:01.588Z,2.80
2023-11-07T17:24:29.146Z,3.00
2023-11-07T17:26:56.956Z,2.70
2023-11-07T17:29:25.460Z,3.07
2023-11-07T17:31:53.303Z,4.93
2023-11-07T17:34:20.642Z,4.43
2023-11-07T17:36:48.304Z,3.30
2023-11-07T17:39:22.194Z,3.77
2023-11-07T17:41:56.006Z,4.57
2023-11-07T17:44:23.882Z,4.73
2023-11-07T17:46:51.707Z,5.07
2023-11-07T17:49:19.641Z,9.03
2023-11-07T17:51:47.091Z,5.53
2023-11-07T17:54:14.570Z,6.43
2023-11-07T17:56:41.786Z,7.23
2023-11-07T17:59:12.751Z,3.87
2023-11-07T18:01:40.744Z,3.50
2023-11-07T18:04:08.426Z,3.10
2023-11-07T18:06:36.021Z,3.07
2023-11-07T18:09:03.619Z,3.23
2023-11-07T18:11:35.520Z,3.30
2023-11-07T18:14:06.162Z,3.10
2023-11-07T18:16:34.153Z,2.80
2023-11-07T18:19:01.587Z,2.70
2023-11-07T18:21:29.354Z,2.70
2023-11-07T18:23:57.828Z,2.90
2023-11-07T18:26:25.317Z,2.70
2023-11-07T18:28:52.611Z,3.30
2023-11-07T18:31:19.996Z,3.20
2023-11-07T18:33:51.111Z,3.00
2023-11-07T18:36:19.774Z,2.83
2023-11-07T18:38:48.050Z,3.00
2023-11-07T18:41:17.744Z,2.83
2023-11-07T18:43:45.102Z,2.90
2023-11-07T18:46:13.371Z,3.37
2023-11-07T18:48:40.868Z,3.23
2023-11-07T18:51:09.775Z,3.10
2023-11-07T18:53:43.545Z,3.30
2023-11-07T18:56:14.061Z,3.10
2023-11-07T18:58:41.582Z,3.10
2023-11-07T19:01:10.139Z,3.07
2023-11-07T19:03:37.536Z,3.13
2023-11-07T19:06:06.002Z,3.17
2023-11-07T19:08:33.251Z,2.93
2023-11-07T19:11:01.052Z,3.03
2023-11-07T19:13:28.822Z,3.20
2023-11-07T19:15:56.144Z,3.03
2023-11-07T19:18:26.544Z,3.27
2023-11-07T19:20:55.063Z,3.30
2023-11-07T19:23:23.615Z,2.93
2023-11-07T19:25:50.987Z,2.83
2023-11-07T19:28:18.264Z,3.30
2023-11-07T19:30:45.521Z,3.90
2023-11-07T19:33:13.203Z,3.40
2023-11-07T19:35:40.774Z,3.30
2023-11-07T19:38:08.102Z,3.10
2023-11-07T19:40:35.399Z,5.43
2023-11-07T19:43:02.625Z,3.33
2023-11-07T19:45:30.563Z,3.47
2023-11-07T19:47:58.121Z,3.30
2023-11-07T19:50:25.806Z,3.43
2023-11-07T19:52:58.188Z,3.30
2023-11-07T19:55:33.719Z,3.60
2023-11-07T19:58:01.312Z,3.97
2023-11-07T20:00:28.855Z,4.53
2023-11-07T20:02:56.280Z,3.70
2023-11-07T20:05:23.780Z,4.40
2023-11-07T20:07:56.049Z,3.67
2023-11-07T20:10:25.718Z,4.47
2023-11-07T20:12:53.356Z,5.40
2023-11-07T20:15:20.847Z,3.40
2023-11-07T20:17:48.459Z,3.37
2023-11-07T20:20:16.042Z,3.23
2023-11-07T20:22:45.076Z,3.27
2023-11-07T20:25:12.751Z,3.10
2023-11-07T20:27:40.608Z,3.60
2023-11-07T20:30:11.738Z,3.77
2023-11-07T20:32:39.747Z,3.47
2023-11-07T20:35:07.680Z,3.00
2023-11-07T20:37:34.999Z,3.20
2023-11-07T20:40:02.395Z,3.37
2023-11-07T20:42:29.582Z,3.40
2023-11-07T20:45:03.631Z,3.40
2023-11-07T20:47:36.379Z,3.40
2023-11-07T20:50:06.317Z,3.87
2023-11-07T20:52:34.661Z,3.87
2023-11-07T20:55:02.259Z,4.10
2023-11-07T20:57:29.573Z,3.70
2023-11-07T20:59:56.856Z,3.57
2023-11-07T21:02:25.407Z,3.30
2023-11-07T21:04:55.559Z,3.30
2023-11-07T21:07:23.315Z,3.50
2023-11-07T21:09:51.929Z,3.43
2023-11-07T21:12:20.977Z,3.90
2023-11-07T21:14:51.142Z,3.40
2023-11-07T21:17:18.568Z,3.37
2023-11-07T21:19:45.798Z,3.70
2023-11-07T21:22:13.018Z,3.40
2023-11-07T21:24:41.004Z,3.50
2023-11-07T21:27:09.265Z,4.73
2023-11-07T21:29:36.469Z,4.70
2023-11-07T21:32:05.420Z,4.10
2023-11-07T21:34:32.729Z,4.20
2023-11-07T21:37:00.377Z,3.60
2023-11-07T21:39:28.520Z,3.60
2023-11-07T21:41:55.806Z,4.10
2023-11-07T21:44:25.096Z,3.80
2023-11-07T21:46:52.873Z,3.80
2023-11-07T21:49:22.516Z,3.57
2023-11-07T21:51:49.976Z,4.00
2023-11-07T21:54:17.242Z,3.63
2023-11-07T21:56:44.471Z,3.40
2023-11-07T21:59:11.699Z,3.43
